Time;durP1;ratioP1;P1;durP2;ratioP2;P2;SDS_P1;SDS_P2;PMS_P1;PMS_P2;Temp;Humidity;BMP_temperature;BMP_pressure;BME280_temperature;BME280_humidity;BME280_pressure;Samples;Min_cycle;Max_cycle;Signal;HPM_P1;HPM_P2
2021/10/01 00:01:06;;;;;;;3.00;1.02;;;;;;;;;;5022640;28;20085;-87
2021/10/01 00:03:33;;;;;;;2.10;1.10;;;;;;;;;;5018543;28;20042;-87
2021/10/01 00:06:02;;;;;;;4.25;1.00;;;;;;;;;;5018459;28;20137;-87
2021/10/01 00:08:28;;;;;;;1.55;0.85;;;;;;;;;;5016590;28;20120;-87
2021/10/01 00:10:57;;;;;;;1.92;1.05;;;;;;;;;;5033289;28;20048;-87
2021/10/01 00:13:23;;;;;;;2.00;0.80;;;;;;;;;;5008977;28;20074;-87
2021/10/01 00:15:50;;;;;;;1.25;0.73;;;;;;;;;;5036020;28;20049;-87
2021/10/01 00:18:17;;;;;;;6.38;0.88;;;;;;;;;;5032068;28;20041;-87
2021/10/01 00:20:43;;;;;;;1.58;0.90;;;;;;;;;;5036945;28;20037;-88
2021/10/01 00:23:12;;;;;;;1.63;0.82;;;;;;;;;;5015124;28;20124;-89
2021/10/01 00:25:38;;;;;;;2.88;1.00;;;;;;;;;;4999380;28;20459;-88
2021/10/01 00:28:06;;;;;;;1.73;1.00;;;;;;;;;;5021792;28;20049;-87
2021/10/01 00:30:32;;;;;;;2.78;0.82;;;;;;;;;;5034610;28;20041;-87
2021/10/01 00:32:59;;;;;;;1.67;1.00;;;;;;;;;;5016991;28;20045;-87
2021/10/01 00:35:26;;;;;;;2.22;0.90;;;;;;;;;;5034840;28;20045;-88
2021/10/01 00:37:52;;;;;;;1.58;0.80;;;;;;;;;;5038413;28;20050;-88
2021/10/01 00:40:21;;;;;;;2.05;0.98;;;;;;;;;;5036161;28;20505;-88
2021/10/01 00:42:47;;;;;;;3.10;1.20;;;;;;;;;;5022478;28;20056;-88
2021/10/01 00:45:14;;;;;;;1.95;1.00;;;;;;;;;;5007198;28;20128;-88
2021/10/01 00:47:40;;;;;;;3.55;0.77;;;;;;;;;;5033711;28;20402;-88
2021/10/01 00:50:08;;;;;;;1.88;0.85;;;;;;;;;;5014673;28;20084;-87
2021/10/01 00:52:35;;;;;;;3.38;1.13;;;;;;;;;;5005616;28;20072;-87
2021/10/01 00:55:02;;;;;;;2.25;1.00;;;;;;;;;;5018530;28;20057;-88
2021/10/01 00:57:30;;;;;;;1.27;0.73;;;;;;;;;;5037130;28;20127;-88
2021/10/01 00:59:57;;;;;;;3.35;1.27;;;;;;;;;;5022466;28;20133;-88
2021/10/01 01:02:23;;;;;;;1.10;0.82;;;;;;;;;;5036722;28;20414;-88
2021/10/01 01:04:51;;;;;;;3.65;1.13;;;;;;;;;;5036243;28;20049;-88
2021/10/01 01:07:25;;;;;;;1.52;0.82;;;;;;;;;;5036427;28;20049;-88
2021/10/01 01:09:54;;;;;;;3.42;1.33;;;;;;;;;;5035218;28;20129;-88
2021/10/01 01:12:33;;;;;;;2.97;1.20;;;;;;;;;;5032811;28;20049;-87
2021/10/01 01:15:06;;;;;;;3.85;1.40;;;;;;;;;;5022610;28;20045;-89
2021/10/01 01:17:36;;;;;;;2.05;0.98;;;;;;;;;;5033769;28;20072;-88
2021/10/01 01:20:07;;;;;;;2.60;0.88;;;;;;;;;;5034161;28;20047;-88
2021/10/01 01:22:40;;;;;;;1.55;0.85;;;;;;;;;;5034188;28;20052;-88
2021/10/01 01:25:20;;;;;;;3.50;1.20;;;;;;;;;;5033838;28;20040;-88
2021/10/01 01:27:52;;;;;;;2.58;1.02;;;;;;;;;;5042496;28;20069;-88
2021/10/01 01:30:21;;;;;;;2.55;1.30;;;;;;;;;;5030482;28;20486;-88
2021/10/01 01:32:50;;;;;;;6.13;1.70;;;;;;;;;;5036243;28;20494;-89
2021/10/01 01:35:19;;;;;;;1.73;1.30;;;;;;;;;;5029562;28;20050;-89
2021/10/01 01:37:50;;;;;;;3.38;1.40;;;;;;;;;;5016845;28;20140;-89
2021/10/01 01:40:18;;;;;;;2.92;1.30;;;;;;;;;;5027602;28;20045;-89
2021/10/01 01:42:46;;;;;;;3.78;1.90;;;;;;;;;;5013691;28;20047;-88
2021/10/01 01:45:17;;;;;;;3.40;1.80;;;;;;;;;;5019091;28;20037;-88
2021/10/01 01:47:45;;;;;;;1.70;1.33;;;;;;;;;;5018318;28;20506;-89
2021/10/01 01:50:13;;;;;;;2.33;1.38;;;;;;;;;;5013389;28;20110;-89
2021/10/01 01:52:41;;;;;;;2.97;1.23;;;;;;;;;;5034507;28;20071;-89
2021/10/01 01:55:09;;;;;;;1.75;1.00;;;;;;;;;;5016923;28;20052;-89
2021/10/01 01:57:36;;;;;;;1.92;1.00;;;;;;;;;;5000397;28;20085;-88
2021/10/01 02:00:05;;;;;;;2.20;1.15;;;;;;;;;;5034432;28;20059;-88
2021/10/01 02:02:32;;;;;;;3.08;1.20;;;;;;;;;;5035652;28;20042;-88
2021/10/01 02:04:59;;;;;;;2.03;1.00;;;;;;;;;;5019801;28;20052;-88
2021/10/01 02:07:28;;;;;;;2.38;1.30;;;;;;;;;;5016431;28;20505;-88
2021/10/01 02:09:56;;;;;;;2.10;1.15;;;;;;;;;;5020875;28;20411;-88
2021/10/01 02:12:22;;;;;;;3.85;1.13;;;;;;;;;;4994950;28;20046;-88
2021/10/01 02:14:51;;;;;;;2.33;1.20;;;;;;;;;;5031393;28;20068;-89
2021/10/01 02:17:19;;;;;;;2.45;1.40;;;;;;;;;;5017219;28;20045;-88
2021/10/01 02:19:47;;;;;;;3.85;1.48;;;;;;;;;;5016719;28;20084;-88
2021/10/01 02:22:16;;;;;;;2.55;1.25;;;;;;;;;;5014032;28;20511;-88
2021/10/01 02:24:45;;;;;;;1.92;1.52;;;;;;;;;;5016411;28;20129;-88
2021/10/01 02:27:15;;;;;;;2.28;1.02;;;;;;;;;;5033891;28;20044;-88
2021/10/01 02:29:47;;;;;;;2.83;1.30;;;;;;;;;;5033097;28;20049;-88
2021/10/01 02:32:21;;;;;;;3.15;1.00;;;;;;;;;;5019116;28;20084;-88
2021/10/01 02:34:49;;;;;;;2.85;1.25;;;;;;;;;;5019513;28;20605;-88
2021/10/01 02:37:16;;;;;;;2.95;1.00;;;;;;;;;;5036047;28;20080;-89
2021/10/01 02:39:46;;;;;;;2.33;1.30;;;;;;;;;;5016869;28;20533;-88
2021/10/01 02:42:14;;;;;;;5.97;1.83;;;;;;;;;;5039756;28;20472;-88
2021/10/01 02:44:42;;;;;;;2.58;1.48;;;;;;;;;;5018974;28;20076;-89
2021/10/01 02:47:10;;;;;;;1.88;1.23;;;;;;;;;;5030147;28;20053;-88
2021/10/01 02:49:36;;;;;;;2.75;1.67;;;;;;;;;;5017271;28;20053;-87
2021/10/01 02:52:10;;;;;;;5.07;1.50;;;;;;;;;;5018326;28;20208;-88
2021/10/01 02:54:42;;;;;;;6.82;1.17;;;;;;;;;;5039534;28;20058;-88
2021/10/01 02:57:13;;;;;;;1.58;1.30;;;;;;;;;;5018160;28;20053;-88
2021/10/01 02:59:40;;;;;;;3.50;1.33;;;;;;;;;;5033737;28;20044;-87
2021/10/01 03:02:07;;;;;;;1.48;1.20;;;;;;;;;;5038910;28;20061;-88
2021/10/01 03:04:35;;;;;;;3.58;1.48;;;;;;;;;;5018563;28;20045;-88
2021/10/01 03:07:03;;;;;;;4.28;1.33;;;;;;;;;;5021881;28;20118;-88
2021/10/01 03:09:30;;;;;;;4.82;1.23;;;;;;;;;;5031269;28;20057;-88
2021/10/01 03:11:57;;;;;;;2.20;1.30;;;;;;;;;;5024649;28;20053;-88
2021/10/01 03:14:26;;;;;;;2.35;1.20;;;;;;;;;;5038490;28;20950;-88
2021/10/01 03:16:53;;;;;;;3.22;1.40;;;;;;;;;;5034707;28;20055;-89
2021/10/01 03:19:22;;;;;;;4.38;1.35;;;;;;;;;;5019861;28;20045;-88
2021/10/01 03:21:50;;;;;;;2.47;1.42;;;;;;;;;;5037685;28;20056;-88
2021/10/01 03:24:17;;;;;;;1.65;1.00;;;;;;;;;;5037389;28;20384;-88
2021/10/01 03:26:45;;;;;;;2.60;1.30;;;;;;;;;;5004039;28;20053;-87
2021/10/01 03:29:12;;;;;;;2.15;1.13;;;;;;;;;;5038740;28;20042;-88
2021/10/01 03:31:40;;;;;;;2.00;1.23;;;;;;;;;;5038266;28;20069;-88
2021/10/01 03:34:07;;;;;;;4.35;1.45;;;;;;;;;;5012474;28;20049;-87
2021/10/01 03:36:34;;;;;;;2.50;1.50;;;;;;;;;;5040381;28;20120;-88
2021/10/01 03:39:01;;;;;;;2.13;1.13;;;;;;;;;;5038729;28;20049;-87
2021/10/01 03:41:28;;;;;;;2.75;1.20;;;;;;;;;;5023470;28;20535;-87
2021/10/01 03:43:55;;;;;;;4.35;1.63;;;;;;;;;;5006188;28;20053;-87
2021/10/01 03:46:22;;;;;;;2.40;1.00;;;;;;;;;;5031397;28;20044;-87
2021/10/01 03:48:51;;;;;;;6.25;1.50;;;;;;;;;;5001464;28;20073;-87
2021/10/01 03:51:17;;;;;;;3.00;1.40;;;;;;;;;;5036443;28;20053;-88
2021/10/01 03:53:44;;;;;;;3.15;1.42;;;;;;;;;;5001850;28;20486;-88
2021/10/01 03:56:16;;;;;;;3.20;1.25;;;;;;;;;;5035087;28;20430;-88
2021/10/01 03:58:43;;;;;;;2.83;1.40;;;;;;;;;;5033179;28;20045;-88
2021/10/01 04:01:09;;;;;;;2.83;1.50;;;;;;;;;;5038631;28;20056;-86
2021/10/01 04:03:36;;;;;;;2.13;1.35;;;;;;;;;;5018877;28;20109;-86
2021/10/01 04:06:04;;;;;;;3.33;1.30;;;;;;;;;;5037258;28;20056;-87
2021/10/01 04:08:31;;;;;;;4.28;1.60;;;;;;;;;;5036847;28;20107;-87
2021/10/01 04:10:58;;;;;;;2.70;1.20;;;;;;;;;;5018845;28;20379;-86
2021/10/01 04:13:25;;;;;;;3.05;1.67;;;;;;;;;;5005248;28;20049;-86
2021/10/01 04:15:52;;;;;;;3.38;1.10;;;;;;;;;;5013602;28;20103;-86
2021/10/01 04:18:18;;;;;;;4.00;1.25;;;;;;;;;;5014632;28;20053;-86
2021/10/01 04:20:45;;;;;;;4.05;1.50;;;;;;;;;;5015409;28;20084;-87
2021/10/01 04:23:14;;;;;;;2.75;1.20;;;;;;;;;;5021865;28;20128;-86
2021/10/01 04:25:41;;;;;;;2.08;1.02;;;;;;;;;;5031335;28;20513;-88
2021/10/01 04:28:08;;;;;;;4.45;1.40;;;;;;;;;;5001546;28;20533;-87
2021/10/01 04:30:41;;;;;;;3.50;1.77;;;;;;;;;;5015179;28;20046;-87
2021/10/01 04:33:13;;;;;;;2.55;1.38;;;;;;;;;;5033398;28;20044;-87
2021/10/01 04:35:40;;;;;;;2.63;1.58;;;;;;;;;;5032140;28;20045;-87
2021/10/01 04:38:07;;;;;;;2.97;1.70;;;;;;;;;;4988396;28;20128;-87
2021/10/01 04:40:35;;;;;;;2.78;1.50;;;;;;;;;;5016454;28;20049;-87
2021/10/01 04:43:02;;;;;;;3.22;1.52;;;;;;;;;;5035345;28;20057;-87
2021/10/01 04:45:28;;;;;;;5.07;2.25;;;;;;;;;;5018434;28;20042;-87
2021/10/01 04:47:55;;;;;;;4.05;2.20;;;;;;;;;;5037664;28;20053;-87
2021/10/01 04:50:21;;;;;;;2.25;1.55;;;;;;;;;;5036618;28;20037;-87
2021/10/01 04:52:48;;;;;;;6.47;1.85;;;;;;;;;;5041019;28;20045;-87
2021/10/01 04:55:15;;;;;;;3.00;1.58;;;;;;;;;;5019841;28;20099;-87
2021/10/01 04:57:43;;;;;;;4.15;1.67;;;;;;;;;;5034217;28;20053;-87
2021/10/01 05:00:11;;;;;;;2.67;1.45;;;;;;;;;;5014187;28;20048;-87
2021/10/01 05:02:38;;;;;;;3.05;1.77;;;;;;;;;;5033770;28;20046;-86
2021/10/01 05:05:05;;;;;;;3.05;1.85;;;;;;;;;;5036232;28;20048;-87
2021/10/01 05:07:32;;;;;;;3.75;1.92;;;;;;;;;;5040330;28;20041;-86
2021/10/01 05:09:59;;;;;;;4.43;2.15;;;;;;;;;;5020595;28;20045;-86
2021/10/01 05:12:26;;;;;;;4.80;1.70;;;;;;;;;;5030043;28;20076;-86
2021/10/01 05:14:54;;;;;;;4.60;1.92;;;;;;;;;;5019146;28;20056;-87
2021/10/01 05:17:22;;;;;;;3.03;1.63;;;;;;;;;;5021841;28;20038;-87
2021/10/01 05:19:49;;;;;;;6.88;2.42;;;;;;;;;;4995180;28;20580;-87
2021/10/01 05:22:16;;;;;;;3.40;1.92;;;;;;;;;;5038827;28;20098;-87
2021/10/01 05:24:45;;;;;;;3.78;1.70;;;;;;;;;;5031606;28;20048;-86
2021/10/01 05:27:12;;;;;;;2.85;1.77;;;;;;;;;;5004596;28;20551;-86
2021/10/01 05:29:39;;;;;;;3.05;1.63;;;;;;;;;;5002825;28;20048;-86
2021/10/01 05:32:08;;;;;;;3.58;1.75;;;;;;;;;;5035538;28;20045;-87
2021/10/01 05:34:35;;;;;;;3.78;1.80;;;;;;;;;;5012078;28;20398;-86
2021/10/01 05:37:03;;;;;;;7.07;1.77;;;;;;;;;;5018583;28;20064;-87
2021/10/01 05:39:30;;;;;;;4.85;1.90;;;;;;;;;;5000168;28;20138;-87
2021/10/01 05:41:57;;;;;;;5.57;1.90;;;;;;;;;;5015213;28;20699;-86
2021/10/01 05:44:23;;;;;;;4.63;2.10;;;;;;;;;;5017220;28;20100;-86
2021/10/01 05:46:50;;;;;;;2.90;1.52;;;;;;;;;;5035885;28;20046;-87
2021/10/01 05:49:21;;;;;;;4.00;1.55;;;;;;;;;;5018450;28;20049;-87
2021/10/01 05:51:50;;;;;;;2.28;1.95;;;;;;;;;;5000233;28;20552;-87
2021/10/01 05:54:22;;;;;;;5.10;2.20;;;;;;;;;;5035340;28;20045;-87
2021/10/01 05:56:50;;;;;;;2.95;1.80;;;;;;;;;;5036331;28;20046;-87
2021/10/01 05:59:17;;;;;;;4.90;1.92;;;;;;;;;;5017931;28;20056;-86
2021/10/01 06:01:44;;;;;;;2.88;1.50;;;;;;;;;;5019276;28;20075;-88
2021/10/01 06:04:11;;;;;;;2.83;1.67;;;;;;;;;;5036521;28;20041;-87
2021/10/01 06:06:39;;;;;;;3.55;2.65;;;;;;;;;;5035809;28;20048;-87
2021/10/01 06:09:10;;;;;;;3.42;1.88;;;;;;;;;;5004165;28;20119;-87
2021/10/01 06:11:38;;;;;;;2.25;1.65;;;;;;;;;;5032744;28;20045;-87
2021/10/01 06:14:05;;;;;;;2.00;1.40;;;;;;;;;;5030549;28;20132;-86
2021/10/01 06:16:32;;;;;;;4.05;1.80;;;;;;;;;;5027717;28;20475;-87
2021/10/01 06:18:58;;;;;;;6.90;3.05;;;;;;;;;;5032534;28;20049;-88
2021/10/01 06:21:25;;;;;;;4.07;1.88;;;;;;;;;;5033799;28;20042;-87
2021/10/01 06:23:53;;;;;;;3.17;1.80;;;;;;;;;;5034942;28;20049;-87
2021/10/01 06:26:20;;;;;;;3.90;1.50;;;;;;;;;;5034071;28;20069;-87
2021/10/01 06:28:46;;;;;;;4.97;1.58;;;;;;;;;;5034745;28;20045;-87
2021/10/01 06:31:13;;;;;;;4.28;2.38;;;;;;;;;;5037281;28;20040;-86
2021/10/01 06:33:40;;;;;;;4.40;1.77;;;;;;;;;;5039487;28;20478;-87
2021/10/01 06:36:07;;;;;;;5.35;1.92;;;;;;;;;;5043270;28;20041;-87
2021/10/01 06:38:33;;;;;;;5.22;2.03;;;;;;;;;;5033373;28;20412;-87
2021/10/01 06:41:03;;;;;;;4.80;2.30;;;;;;;;;;5036706;28;20049;-87
2021/10/01 06:43:30;;;;;;;4.88;2.05;;;;;;;;;;5038890;28;20042;-87
2021/10/01 06:45:58;;;;;;;4.07;1.70;;;;;;;;;;5041461;28;20072;-87
2021/10/01 06:48:38;;;;;;;3.47;2.10;;;;;;;;;;5039668;28;20099;-87
2021/10/01 06:51:23;;;;;;;6.15;2.30;;;;;;;;;;5030269;28;20441;-86
2021/10/01 08:19:22;;;;;;;6.30;2.40;;;;;;;;;;4895591;29;20055;-85
2021/10/01 08:21:49;;;;;;;3.70;1.92;;;;;;;;;;4997790;28;20050;-86
2021/10/01 08:24:16;;;;;;;3.88;2.20;;;;;;;;;;5033287;28;20064;-85
2021/10/01 08:26:43;;;;;;;4.93;2.00;;;;;;;;;;5035454;28;20046;-85
2021/10/01 08:29:10;;;;;;;3.17;1.70;;;;;;;;;;5035941;28;20048;-84
2021/10/01 08:31:37;;;;;;;3.42;1.70;;;;;;;;;;5029074;28;20061;-84
2021/10/01 08:34:03;;;;;;;3.97;2.08;;;;;;;;;;5033559;28;20053;-85
2021/10/01 08:36:31;;;;;;;4.80;1.85;;;;;;;;;;5030687;28;20056;-84
2021/10/01 08:38:58;;;;;;;4.47;2.20;;;;;;;;;;5031534;28;20046;-85
2021/10/01 08:41:24;;;;;;;2.65;1.60;;;;;;;;;;5030511;28;20437;-85
2021/10/01 08:43:51;;;;;;;3.88;1.92;;;;;;;;;;5029438;28;20070;-85
2021/10/01 08:46:19;;;;;;;3.55;2.10;;;;;;;;;;5036823;28;20046;-85
2021/10/01 08:48:46;;;;;;;5.45;2.00;;;;;;;;;;5032813;28;20056;-84
2021/10/01 08:51:14;;;;;;;4.93;2.00;;;;;;;;;;5035527;28;20045;-84
2021/10/01 08:53:42;;;;;;;3.38;1.70;;;;;;;;;;5032438;28;20041;-84
2021/10/01 08:56:09;;;;;;;3.28;1.67;;;;;;;;;;5035884;28;20049;-85
2021/10/01 08:58:35;;;;;;;3.53;1.98;;;;;;;;;;5036741;28;22859;-85
2021/10/01 09:01:04;;;;;;;4.15;1.65;;;;;;;;;;5039692;28;20053;-85
2021/10/01 09:03:31;;;;;;;4.28;1.65;;;;;;;;;;5036480;28;20041;-84
2021/10/01 09:05:58;;;;;;;3.10;1.85;;;;;;;;;;5028898;28;20049;-85
2021/10/01 09:08:25;;;;;;;5.18;2.10;;;;;;;;;;5012320;28;20053;-86
2021/10/01 09:11:02;;;;;;;3.92;1.92;;;;;;;;;;5032556;28;20041;-85
2021/10/01 09:13:29;;;;;;;2.95;1.42;;;;;;;;;;5030533;28;20277;-84
2021/10/01 09:16:01;;;;;;;4.75;1.70;;;;;;;;;;5031724;28;20053;-85
2021/10/01 09:18:30;;;;;;;3.95;1.50;;;;;;;;;;4999342;28;20125;-84
2021/10/01 09:21:04;;;;;;;5.45;1.95;;;;;;;;;;5038761;28;20411;-86
2021/10/01 09:23:35;;;;;;;3.45;1.63;;;;;;;;;;5010995;28;20126;-85
2021/10/01 09:26:12;;;;;;;3.67;1.50;;;;;;;;;;4996079;28;20080;-87
2021/10/01 09:28:51;;;;;;;3.38;1.27;;;;;;;;;;5032168;28;20041;-86
2021/10/01 09:31:32;;;;;;;3.10;1.45;;;;;;;;;;5014814;28;20128;-86
2021/10/01 09:33:59;;;;;;;3.15;1.25;;;;;;;;;;5038192;28;20044;-86
2021/10/01 09:36:26;;;;;;;4.75;1.40;;;;;;;;;;5001294;28;20124;-86
2021/10/01 09:38:53;;;;;;;2.38;1.30;;;;;;;;;;5037623;28;20438;-85
2021/10/01 09:41:25;;;;;;;3.50;1.15;;;;;;;;;;5034602;28;20041;-85
2021/10/01 09:43:59;;;;;;;3.45;1.20;;;;;;;;;;5034416;28;20086;-85
2021/10/01 09:46:34;;;;;;;3.70;1.40;;;;;;;;;;5035563;28;20045;-85
2021/10/01 09:49:02;;;;;;;2.88;1.35;;;;;;;;;;5034475;28;20053;-84
2021/10/01 09:51:29;;;;;;;4.03;1.70;;;;;;;;;;5036660;28;20085;-84
2021/10/01 09:53:56;;;;;;;1.55;0.98;;;;;;;;;;5035974;28;20046;-85
2021/10/01 09:56:26;;;;;;;4.20;1.30;;;;;;;;;;5030957;28;20056;-84
2021/10/01 09:59:06;;;;;;;3.42;0.90;;;;;;;;;;5034574;28;20115;-84
2021/10/01 10:01:33;;;;;;;3.03;1.30;;;;;;;;;;5035035;28;20072;-85
2021/10/01 10:04:17;;;;;;;2.13;1.20;;;;;;;;;;5042778;28;20047;-84
2021/10/01 10:06:47;;;;;;;2.20;1.10;;;;;;;;;;5021264;28;20044;-84
2021/10/01 10:09:13;;;;;;;1.50;1.00;;;;;;;;;;5031604;28;20073;-85
2021/10/01 10:11:42;;;;;;;3.00;1.15;;;;;;;;;;5033107;28;20056;-85
2021/10/01 10:14:10;;;;;;;4.75;1.23;;;;;;;;;;5029738;28;20443;-85
2021/10/01 10:16:38;;;;;;;1.35;0.80;;;;;;;;;;5023910;28;20469;-85
2021/10/01 10:19:07;;;;;;;2.55;1.20;;;;;;;;;;5019694;28;20048;-84
2021/10/01 10:21:34;;;;;;;3.58;1.20;;;;;;;;;;5035075;28;20072;-85
2021/10/01 10:24:01;;;;;;;2.92;0.85;;;;;;;;;;5033403;28;20045;-84
2021/10/01 10:26:28;;;;;;;1.67;0.65;;;;;;;;;;5023161;28;20057;-84
2021/10/01 10:29:01;;;;;;;3.65;0.82;;;;;;;;;;5038247;28;20045;-84
2021/10/01 10:31:29;;;;;;;3.08;1.35;;;;;;;;;;5031430;28;20050;-84
2021/10/01 10:33:57;;;;;;;1.65;0.85;;;;;;;;;;5030908;28;20587;-84
2021/10/01 10:36:34;;;;;;;2.15;0.80;;;;;;;;;;5012162;28;20107;-84
2021/10/01 10:39:34;;;;;;;2.95;1.00;;;;;;;;;;5015874;28;20044;-84
2021/10/01 10:42:14;;;;;;;1.92;0.93;;;;;;;;;;5028990;28;20461;-85
2021/10/01 10:44:45;;;;;;;1.50;0.52;;;;;;;;;;5033531;28;20395;-85
2021/10/01 10:47:12;;;;;;;1.40;0.80;;;;;;;;;;5027970;28;20037;-84
2021/10/01 10:49:39;;;;;;;2.75;0.70;;;;;;;;;;5033959;28;20124;-85
2021/10/01 10:52:09;;;;;;;1.95;0.80;;;;;;;;;;5030713;28;20425;-86
2021/10/01 10:54:37;;;;;;;2.97;0.90;;;;;;;;;;5029912;28;20100;-85
2021/10/01 10:57:29;;;;;;;1.73;0.80;;;;;;;;;;5037779;28;20052;-86
2021/10/01 10:59:58;;;;;;;2.38;1.13;;;;;;;;;;5036793;28;20049;-85
2021/10/01 11:02:28;;;;;;;3.55;1.00;;;;;;;;;;5030910;28;20152;-85
2021/10/01 11:05:20;;;;;;;3.13;1.05;;;;;;;;;;5037243;28;20080;-86
2021/10/01 11:07:50;;;;;;;1.75;0.95;;;;;;;;;;5035413;28;20072;-84
2021/10/01 11:10:37;;;;;;;2.55;1.08;;;;;;;;;;5035689;28;20402;-85
2021/10/01 11:13:25;;;;;;;6.75;1.42;;;;;;;;;;5038333;28;20049;-85
2021/10/01 11:16:17;;;;;;;2.13;1.10;;;;;;;;;;5036289;28;20049;-86
2021/10/01 11:19:04;;;;;;;2.30;0.90;;;;;;;;;;5038101;28;20132;-85
2021/10/01 11:21:33;;;;;;;1.75;0.80;;;;;;;;;;5039246;28;20106;-85
2021/10/01 11:24:02;;;;;;;1.95;0.80;;;;;;;;;;5033391;28;20053;-85
2021/10/01 11:26:30;;;;;;;2.53;0.82;;;;;;;;;;5039301;28;20049;-86
2021/10/01 11:28:57;;;;;;;1.35;0.70;;;;;;;;;;5032789;28;20482;-85
2021/10/01 11:31:35;;;;;;;1.42;0.65;;;;;;;;;;5039133;28;20052;-86
2021/10/01 11:34:02;;;;;;;1.15;0.70;;;;;;;;;;5037058;28;20544;-85
2021/10/01 11:36:28;;;;;;;1.70;0.88;;;;;;;;;;5038999;28;20508;-87
2021/10/01 11:39:02;;;;;;;2.45;0.57;;;;;;;;;;5036989;28;20057;-85
2021/10/01 11:41:29;;;;;;;1.98;0.75;;;;;;;;;;5029967;28;20053;-86
2021/10/01 11:43:57;;;;;;;4.68;0.80;;;;;;;;;;5039886;28;20080;-85
2021/10/01 11:46:34;;;;;;;3.05;0.90;;;;;;;;;;5038831;28;20045;-85
2021/10/01 11:49:07;;;;;;;2.03;0.70;;;;;;;;;;5038736;28;20045;-87
2021/10/01 11:51:34;;;;;;;2.85;0.60;;;;;;;;;;5036460;28;20048;-85
2021/10/01 11:54:12;;;;;;;1.08;0.60;;;;;;;;;;5021022;28;20136;-87
2021/10/01 11:56:39;;;;;;;1.52;0.55;;;;;;;;;;5021844;28;20049;-86
2021/10/01 11:59:07;;;;;;;4.55;1.00;;;;;;;;;;5000144;28;20102;-86
2021/10/01 12:01:35;;;;;;;3.22;0.90;;;;;;;;;;5031528;28;20119;-87
2021/10/01 12:04:02;;;;;;;2.92;0.98;;;;;;;;;;5041058;28;20079;-87
2021/10/01 12:06:34;;;;;;;0.90;0.52;;;;;;;;;;5036830;28;20479;-86
2021/10/01 12:09:03;;;;;;;1.60;0.70;;;;;;;;;;5039021;28;20045;-86
2021/10/01 12:11:32;;;;;;;1.42;0.70;;;;;;;;;;5033853;28;20053;-86
2021/10/01 12:14:15;;;;;;;1.67;0.60;;;;;;;;;;5016004;28;20055;-85
2021/10/01 12:16:55;;;;;;;1.60;0.80;;;;;;;;;;5031983;28;20052;-88
2021/10/01 12:19:24;;;;;;;1.60;0.70;;;;;;;;;;5037415;28;20487;-87
2021/10/01 12:22:02;;;;;;;1.90;0.70;;;;;;;;;;5036428;28;20482;-86
2021/10/01 12:24:29;;;;;;;1.77;0.70;;;;;;;;;;5035322;28;20057;-86
2021/10/01 12:26:56;;;;;;;3.15;0.57;;;;;;;;;;5016318;28;20041;-86
2021/10/01 12:29:24;;;;;;;1.42;0.60;;;;;;;;;;5036150;28;20042;-86
2021/10/01 12:31:54;;;;;;;1.45;0.70;;;;;;;;;;5028420;28;20049;-86
2021/10/01 12:34:22;;;;;;;1.85;1.10;;;;;;;;;;5033121;28;20042;-87
2021/10/01 12:36:52;;;;;;;1.23;0.60;;;;;;;;;;5029444;28;20049;-86
2021/10/01 12:39:19;;;;;;;1.45;0.80;;;;;;;;;;5036664;28;20050;-86
2021/10/01 12:41:45;;;;;;;0.70;0.52;;;;;;;;;;5038009;28;20049;-86
2021/10/01 12:44:16;;;;;;;1.67;0.70;;;;;;;;;;5037001;28;20551;-87
2021/10/01 12:46:45;;;;;;;1.45;0.68;;;;;;;;;;5033558;28;20501;-86
2021/10/01 12:49:31;;;;;;;0.80;0.30;;;;;;;;;;5036851;28;20041;-86
2021/10/01 12:52:08;;;;;;;0.70;0.40;;;;;;;;;;5035768;28;20128;-86
2021/10/01 12:54:36;;;;;;;2.25;0.60;;;;;;;;;;5033594;28;20403;-86
2021/10/01 12:57:14;;;;;;;1.13;0.52;;;;;;;;;;5041071;28;20048;-87
2021/10/01 12:59:42;;;;;;;2.45;1.13;;;;;;;;;;5028339;28;20046;-86
2021/10/01 13:02:11;;;;;;;1.00;0.65;;;;;;;;;;5035932;28;20049;-86
2021/10/01 13:04:47;;;;;;;1.42;0.77;;;;;;;;;;5031938;28;20084;-86
2021/10/01 13:07:22;;;;;;;1.63;0.52;;;;;;;;;;5033620;28;20041;-86
2021/10/01 13:09:48;;;;;;;2.20;0.85;;;;;;;;;;5036700;28;20061;-87
2021/10/01 13:12:30;;;;;;;1.30;0.70;;;;;;;;;;5037138;28;20055;-86
2021/10/01 13:15:15;;;;;;;1.48;0.70;;;;;;;;;;5041331;28;20053;-87
2021/10/01 13:17:43;;;;;;;6.35;1.05;;;;;;;;;;5031005;28;20041;-87
2021/10/01 13:20:11;;;;;;;1.70;0.68;;;;;;;;;;5032191;28;20048;-87
2021/10/01 13:22:55;;;;;;;2.20;0.65;;;;;;;;;;5033513;28;20049;-87
2021/10/01 13:25:23;;;;;;;1.35;0.70;;;;;;;;;;5027713;28;20044;-87
2021/10/01 13:27:50;;;;;;;1.63;0.90;;;;;;;;;;5036288;28;20053;-87
2021/10/01 13:30:17;;;;;;;1.75;0.90;;;;;;;;;;5033467;28;20068;-88
2021/10/01 13:32:44;;;;;;;1.83;0.80;;;;;;;;;;5029645;28;20077;-87
2021/10/01 13:35:12;;;;;;;1.17;0.70;;;;;;;;;;5035402;28;20052;-88
2021/10/01 13:37:39;;;;;;;1.58;0.82;;;;;;;;;;5042739;28;20053;-88
2021/10/01 13:40:06;;;;;;;1.52;0.93;;;;;;;;;;5036805;28;20061;-87
2021/10/01 13:42:33;;;;;;;2.53;0.80;;;;;;;;;;5018242;28;20057;-87
2021/10/01 13:45:00;;;;;;;2.83;1.20;;;;;;;;;;5031064;28;20065;-86
2021/10/01 13:47:26;;;;;;;0.75;0.55;;;;;;;;;;5016369;28;20394;-87
2021/10/01 13:49:53;;;;;;;1.05;0.65;;;;;;;;;;5001986;28;20046;-88
2021/10/01 13:52:21;;;;;;;2.38;1.27;;;;;;;;;;5000959;28;20088;-87
2021/10/01 13:54:48;;;;;;;1.25;0.60;;;;;;;;;;5031865;28;20053;-87
2021/10/01 13:57:15;;;;;;;1.38;1.00;;;;;;;;;;5018596;28;20442;-87
2021/10/01 13:59:42;;;;;;;2.10;0.85;;;;;;;;;;4998589;28;20410;-88
2021/10/01 14:02:09;;;;;;;2.70;1.48;;;;;;;;;;4976604;28;20408;-88
2021/10/01 14:04:36;;;;;;;2.13;1.13;;;;;;;;;;5001260;28;20053;-88
2021/10/01 14:07:03;;;;;;;3.95;1.02;;;;;;;;;;5002877;28;20053;-87
2021/10/01 14:09:31;;;;;;;0.85;0.73;;;;;;;;;;5028204;28;20049;-86
2021/10/01 14:11:57;;;;;;;1.88;0.98;;;;;;;;;;5028824;28;20501;-86
2021/10/01 14:14:24;;;;;;;1.52;0.90;;;;;;;;;;4996983;28;20084;-86
2021/10/01 14:16:51;;;;;;;0.75;0.55;;;;;;;;;;5017953;28;20050;-86
2021/10/01 14:19:17;;;;;;;6.00;1.30;;;;;;;;;;5014104;28;20099;-87
2021/10/01 14:21:44;;;;;;;1.60;0.85;;;;;;;;;;5032319;28;20049;-87
2021/10/01 14:24:11;;;;;;;1.75;0.90;;;;;;;;;;5036783;28;20079;-87
2021/10/01 14:26:39;;;;;;;1.80;0.90;;;;;;;;;;5033172;28;20041;-86
2021/10/01 14:29:06;;;;;;;1.35;0.88;;;;;;;;;;5030487;28;20049;-86
2021/10/01 14:31:33;;;;;;;2.20;1.10;;;;;;;;;;5012423;28;20046;-87
2021/10/01 14:34:02;;;;;;;2.00;0.90;;;;;;;;;;5012184;28;20053;-86
2021/10/01 14:36:30;;;;;;;2.65;1.10;;;;;;;;;;5030333;28;20042;-86
2021/10/01 14:38:57;;;;;;;2.13;0.93;;;;;;;;;;5014935;28;20077;-87
2021/10/01 14:41:26;;;;;;;2.72;1.10;;;;;;;;;;5036307;28;20049;-86
2021/10/01 14:43:55;;;;;;;1.67;0.90;;;;;;;;;;5021583;28;20092;-86
2021/10/01 14:46:21;;;;;;;1.88;0.90;;;;;;;;;;4999395;28;20103;-85
2021/10/01 14:48:50;;;;;;;2.45;1.05;;;;;;;;;;5031318;28;20048;-85
2021/10/01 14:51:17;;;;;;;1.20;0.88;;;;;;;;;;5016366;28;20045;-86
2021/10/01 14:53:44;;;;;;;2.58;0.90;;;;;;;;;;5017625;28;20042;-85
2021/10/01 14:56:11;;;;;;;1.75;1.00;;;;;;;;;;5013713;28;20107;-85
2021/10/01 14:58:37;;;;;;;1.63;0.90;;;;;;;;;;5034970;28;20128;-85
2021/10/01 15:01:06;;;;;;;2.42;0.90;;;;;;;;;;5021722;28;20045;-85
2021/10/01 15:03:32;;;;;;;1.70;0.80;;;;;;;;;;5025307;28;20568;-86
2021/10/01 15:05:59;;;;;;;3.33;1.17;;;;;;;;;;5044240;28;20050;-85
2021/10/01 15:08:26;;;;;;;2.60;1.10;;;;;;;;;;5038560;28;20049;-85
2021/10/01 15:10:52;;;;;;;2.65;1.08;;;;;;;;;;5021815;28;20080;-85
2021/10/01 15:13:19;;;;;;;1.98;1.02;;;;;;;;;;5006091;28;20502;-86
2021/10/01 15:15:46;;;;;;;2.75;1.45;;;;;;;;;;5037476;28;20049;-85
2021/10/01 15:18:14;;;;;;;2.85;1.30;;;;;;;;;;5034471;28;20041;-85
2021/10/01 15:20:41;;;;;;;2.47;1.20;;;;;;;;;;5004298;28;20124;-85
2021/10/01 15:23:09;;;;;;;1.92;1.30;;;;;;;;;;5021150;28;20071;-85
2021/10/01 15:25:39;;;;;;;2.70;1.20;;;;;;;;;;5040235;28;20111;-85
2021/10/01 15:28:06;;;;;;;2.97;1.27;;;;;;;;;;5043385;28;20061;-85
2021/10/01 15:30:32;;;;;;;2.70;1.50;;;;;;;;;;5036086;28;20049;-85
2021/10/01 15:32:59;;;;;;;2.38;1.27;;;;;;;;;;5041232;28;20491;-85
2021/10/01 15:35:27;;;;;;;3.67;1.10;;;;;;;;;;5009906;28;20050;-85
2021/10/01 15:37:57;;;;;;;2.20;1.63;;;;;;;;;;5028190;28;20045;-84
2021/10/01 15:40:25;;;;;;;3.65;1.50;;;;;;;;;;5020029;28;20045;-85
2021/10/01 15:42:53;;;;;;;1.98;1.02;;;;;;;;;;5007922;28;20081;-85
2021/10/01 15:45:22;;;;;;;15.38;2.95;;;;;;;;;;5025093;28;20045;-85
2021/10/01 15:47:49;;;;;;;40.33;3.60;;;;;;;;;;5001812;28;20046;-85
2021/10/01 15:50:16;;;;;;;8.65;2.53;;;;;;;;;;5029136;28;20053;-86
2021/10/01 15:52:47;;;;;;;8.02;1.65;;;;;;;;;;5033901;28;20038;-84
2021/10/01 15:55:14;;;;;;;4.63;1.33;;;;;;;;;;5035983;28;20053;-84
2021/10/01 15:57:42;;;;;;;3.55;1.88;;;;;;;;;;5039837;28;20049;-85
2021/10/01 16:00:11;;;;;;;4.70;1.80;;;;;;;;;;5018348;28;20045;-85
2021/10/01 16:02:38;;;;;;;3.25;1.80;;;;;;;;;;5018349;28;20124;-85
2021/10/01 16:05:05;;;;;;;4.38;2.10;;;;;;;;;;5041051;28;20052;-85
2021/10/01 16:07:32;;;;;;;2.83;1.70;;;;;;;;;;5038184;28;20044;-85
2021/10/01 16:10:00;;;;;;;4.85;2.60;;;;;;;;;;5035646;28;20490;-85
2021/10/01 16:12:26;;;;;;;4.75;2.50;;;;;;;;;;5034722;28;20049;-85
2021/10/01 16:14:53;;;;;;;4.43;3.03;;;;;;;;;;5036806;28;20071;-85
2021/10/01 16:17:19;;;;;;;6.95;3.75;;;;;;;;;;5038714;28;20073;-84
2021/10/01 16:19:46;;;;;;;7.28;3.72;;;;;;;;;;5039182;28;20525;-85